sensor_id;sensor_type;location;lat;lon;timestamp;P1;durP1;ratioP1;P2;durP2;ratioP2
65202;SDS011;51788;45.124;38.966;2024-03-29T00:00:51;12.63;;;9.02;;
65202;SDS011;51788;45.124;38.966;2024-03-29T00:03:17;14.60;;;10.02;;
65202;SDS011;51788;45.124;38.966;2024-03-29T00:05:43;26.48;;;10.13;;
65202;SDS011;51788;45.124;38.966;2024-03-29T00:08:10;31.25;;;10.75;;
65202;SDS011;51788;45.124;38.966;2024-03-29T00:10:36;28.35;;;10.80;;
65202;SDS011;51788;45.124;38.966;2024-03-29T00:13:03;26.02;;;10.57;;
65202;SDS011;51788;45.124;38.966;2024-03-29T00:15:31;21.45;;;9.27;;
65202;SDS011;51788;45.124;38.966;2024-03-29T00:17:57;17.50;;;9.30;;
65202;SDS011;51788;45.124;38.966;2024-03-29T00:20:23;16.80;;;9.80;;
65202;SDS011;51788;45.124;38.966;2024-03-29T00:22:49;24.75;;;9.38;;
65202;SDS011;51788;45.124;38.966;2024-03-29T00:25:16;20.20;;;9.30;;
65202;SDS011;51788;45.124;38.966;2024-03-29T00:27:42;24.10;;;9.45;;
65202;SDS011;51788;45.124;38.966;2024-03-29T00:30:09;24.63;;;10.05;;
65202;SDS011;51788;45.124;38.966;2024-03-29T00:32:35;20.05;;;9.45;;
65202;SDS011;51788;45.124;38.966;2024-03-29T00:35:01;22.00;;;10.13;;
65202;SDS011;51788;45.124;38.966;2024-03-29T00:37:28;26.27;;;10.40;;
65202;SDS011;51788;45.124;38.966;2024-03-29T00:39:53;27.63;;;10.48;;
65202;SDS011;51788;45.124;38.966;2024-03-29T00:42:20;19.58;;;11.02;;
65202;SDS011;51788;45.124;38.966;2024-03-29T00:44:46;14.90;;;8.77;;
65202;SDS011;51788;45.124;38.966;2024-03-29T00:47:12;14.85;;;10.25;;
65202;SDS011;51788;45.124;38.966;2024-03-29T00:49:41;20.15;;;9.63;;
65202;SDS011;51788;45.124;38.966;2024-03-29T00:52:07;19.70;;;9.50;;
65202;SDS011;51788;45.124;38.966;2024-03-29T00:54:33;19.20;;;9.23;;
65202;SDS011;51788;45.124;38.966;2024-03-29T00:56:59;21.98;;;9.50;;
65202;SDS011;51788;45.124;38.966;2024-03-29T00:59:28;16.02;;;9.20;;
65202;SDS011;51788;45.124;38.966;2024-03-29T01:01:55;17.95;;;9.32;;
65202;SDS011;51788;45.124;38.966;2024-03-29T01:04:20;21.08;;;8.70;;
65202;SDS011;51788;45.124;38.966;2024-03-29T01:06:46;40.33;;;9.85;;
65202;SDS011;51788;45.124;38.966;2024-03-29T01:09:12;25.55;;;8.77;;
65202;SDS011;51788;45.124;38.966;2024-03-29T01:11:38;17.73;;;8.48;;
65202;SDS011;51788;45.124;38.966;2024-03-29T01:14:05;16.25;;;8.20;;
65202;SDS011;51788;45.124;38.966;2024-03-29T01:16:32;17.42;;;9.45;;
65202;SDS011;51788;45.124;38.966;2024-03-29T01:18:58;24.58;;;8.60;;
65202;SDS011;51788;45.124;38.966;2024-03-29T01:21:27;28.20;;;9.88;;
65202;SDS011;51788;45.124;38.966;2024-03-29T01:23:54;19.15;;;9.30;;
65202;SDS011;51788;45.124;38.966;2024-03-29T01:26:19;17.42;;;8.25;;
65202;SDS011;51788;45.124;38.966;2024-03-29T01:28:45;19.35;;;8.52;;
65202;SDS011;51788;45.124;38.966;2024-03-29T01:31:12;15.25;;;8.27;;
65202;SDS011;51788;45.124;38.966;2024-03-29T01:33:38;15.77;;;9.43;;
65202;SDS011;51788;45.124;38.966;2024-03-29T01:36:06;27.35;;;9.52;;
65202;SDS011;51788;45.124;38.966;2024-03-29T01:38:33;13.40;;;8.05;;
65202;SDS011;51788;45.124;38.966;2024-03-29T01:40:59;21.77;;;8.48;;
65202;SDS011;51788;45.124;38.966;2024-03-29T01:43:26;20.88;;;8.35;;
65202;SDS011;51788;45.124;38.966;2024-03-29T01:45:53;19.05;;;9.52;;
65202;SDS011;51788;45.124;38.966;2024-03-29T01:48:23;19.77;;;8.75;;
65202;SDS011;51788;45.124;38.966;2024-03-29T01:50:51;30.10;;;11.38;;
65202;SDS011;51788;45.124;38.966;2024-03-29T01:53:21;28.23;;;9.43;;
65202;SDS011;51788;45.124;38.966;2024-03-29T01:55:49;16.02;;;9.15;;
65202;SDS011;51788;45.124;38.966;2024-03-29T01:58:15;28.02;;;9.32;;
65202;SDS011;51788;45.124;38.966;2024-03-29T02:00:42;19.65;;;9.13;;
65202;SDS011;51788;45.124;38.966;2024-03-29T02:03:18;22.90;;;10.23;;
65202;SDS011;51788;45.124;38.966;2024-03-29T02:05:44;29.80;;;9.95;;
65202;SDS011;51788;45.124;38.966;2024-03-29T02:08:12;24.52;;;10.00;;
65202;SDS011;51788;45.124;38.966;2024-03-29T02:10:39;24.75;;;10.52;;
65202;SDS011;51788;45.124;38.966;2024-03-29T02:13:05;21.92;;;10.38;;
65202;SDS011;51788;45.124;38.966;2024-03-29T02:15:31;26.63;;;9.27;;
65202;SDS011;51788;45.124;38.966;2024-03-29T02:17:57;20.75;;;9.55;;
65202;SDS011;51788;45.124;38.966;2024-03-29T02:20:24;21.67;;;9.45;;
65202;SDS011;51788;45.124;38.966;2024-03-29T02:22:54;25.35;;;10.88;;
65202;SDS011;51788;45.124;38.966;2024-03-29T02:25:27;23.67;;;11.10;;
65202;SDS011;51788;45.124;38.966;2024-03-29T02:27:54;38.55;;;10.02;;
65202;SDS011;51788;45.124;38.966;2024-03-29T02:30:21;24.65;;;11.27;;
65202;SDS011;51788;45.124;38.966;2024-03-29T02:32:47;30.20;;;11.95;;
65202;SDS011;51788;45.124;38.966;2024-03-29T02:35:13;42.40;;;12.48;;
65202;SDS011;51788;45.124;38.966;2024-03-29T02:37:39;23.10;;;10.10;;
65202;SDS011;51788;45.124;38.966;2024-03-29T02:40:05;25.55;;;10.68;;
65202;SDS011;51788;45.124;38.966;2024-03-29T02:42:34;30.85;;;10.82;;
65202;SDS011;51788;45.124;38.966;2024-03-29T02:45:01;25.77;;;9.73;;
65202;SDS011;51788;45.124;38.966;2024-03-29T02:47:28;23.75;;;10.98;;
65202;SDS011;51788;45.124;38.966;2024-03-29T02:49:54;26.80;;;11.07;;
65202;SDS011;51788;45.124;38.966;2024-03-29T02:52:20;22.52;;;9.10;;
65202;SDS011;51788;45.124;38.966;2024-03-29T02:54:46;19.70;;;9.95;;
65202;SDS011;51788;45.124;38.966;2024-03-29T02:57:12;28.17;;;10.55;;
65202;SDS011;51788;45.124;38.966;2024-03-29T02:59:41;19.23;;;9.00;;
65202;SDS011;51788;45.124;38.966;2024-03-29T03:02:07;20.02;;;10.20;;
65202;SDS011;51788;45.124;38.966;2024-03-29T03:04:33;23.10;;;10.40;;
65202;SDS011;51788;45.124;38.966;2024-03-29T03:06:59;17.52;;;9.30;;
65202;SDS011;51788;45.124;38.966;2024-03-29T03:09:45;45.63;;;10.50;;
65202;SDS011;51788;45.124;38.966;2024-03-29T03:12:30;29.42;;;9.52;;
65202;SDS011;51788;45.124;38.966;2024-03-29T03:14:56;43.47;;;10.90;;
65202;SDS011;51788;45.124;38.966;2024-03-29T03:17:24;29.25;;;9.77;;
65202;SDS011;51788;45.124;38.966;2024-03-29T03:19:53;57.53;;;11.13;;
65202;SDS011;51788;45.124;38.966;2024-03-29T03:22:19;100.68;;;12.68;;
65202;SDS011;51788;45.124;38.966;2024-03-29T03:24:45;58.28;;;12.30;;
65202;SDS011;51788;45.124;38.966;2024-03-29T03:27:11;52.05;;;11.40;;
65202;SDS011;51788;45.124;38.966;2024-03-29T03:29:37;54.58;;;12.15;;
65202;SDS011;51788;45.124;38.966;2024-03-29T03:32:03;49.08;;;10.98;;
65202;SDS011;51788;45.124;38.966;2024-03-29T03:34:30;43.05;;;11.18;;
65202;SDS011;51788;45.124;38.966;2024-03-29T03:36:56;44.05;;;10.23;;
65202;SDS011;51788;45.124;38.966;2024-03-29T03:39:22;33.72;;;10.55;;
65202;SDS011;51788;45.124;38.966;2024-03-29T03:41:48;43.75;;;11.15;;
65202;SDS011;51788;45.124;38.966;2024-03-29T03:44:15;42.83;;;9.98;;
65202;SDS011;51788;45.124;38.966;2024-03-29T03:46:41;39.00;;;10.02;;
65202;SDS011;51788;45.124;38.966;2024-03-29T03:49:07;47.40;;;11.00;;
65202;SDS011;51788;45.124;38.966;2024-03-29T03:51:33;49.13;;;10.60;;
65202;SDS011;51788;45.124;38.966;2024-03-29T03:53:59;30.55;;;12.35;;
65202;SDS011;51788;45.124;38.966;2024-03-29T03:56:25;47.42;;;10.88;;
65202;SDS011;51788;45.124;38.966;2024-03-29T03:58:51;35.70;;;11.20;;
65202;SDS011;51788;45.124;38.966;2024-03-29T04:01:18;38.95;;;12.80;;
65202;SDS011;51788;45.124;38.966;2024-03-29T04:03:43;43.53;;;11.23;;
65202;SDS011;51788;45.124;38.966;2024-03-29T04:06:10;38.70;;;13.35;;
65202;SDS011;51788;45.124;38.966;2024-03-29T04:08:36;58.97;;;15.07;;
65202;SDS011;51788;45.124;38.966;2024-03-29T04:11:02;76.25;;;13.65;;
65202;SDS011;51788;45.124;38.966;2024-03-29T04:13:29;34.78;;;11.52;;
65202;SDS011;51788;45.124;38.966;2024-03-29T04:16:01;51.03;;;11.60;;
65202;SDS011;51788;45.124;38.966;2024-03-29T04:18:28;39.70;;;11.50;;
65202;SDS011;51788;45.124;38.966;2024-03-29T04:20:57;43.70;;;12.77;;
65202;SDS011;51788;45.124;38.966;2024-03-29T04:23:27;100.65;;;12.30;;
65202;SDS011;51788;45.124;38.966;2024-03-29T04:25:54;76.25;;;14.20;;
65202;SDS011;51788;45.124;38.966;2024-03-29T04:28:25;40.17;;;11.80;;
65202;SDS011;51788;45.124;38.966;2024-03-29T04:30:55;40.13;;;12.05;;
65202;SDS011;51788;45.124;38.966;2024-03-29T04:33:21;33.75;;;11.45;;
65202;SDS011;51788;45.124;38.966;2024-03-29T04:38:23;55.08;;;12.27;;
65202;SDS011;51788;45.124;38.966;2024-03-29T04:40:50;32.47;;;11.48;;
65202;SDS011;51788;45.124;38.966;2024-03-29T04:43:18;42.25;;;11.60;;
65202;SDS011;51788;45.124;38.966;2024-03-29T04:45:44;33.70;;;11.38;;
65202;SDS011;51788;45.124;38.966;2024-03-29T04:48:10;57.17;;;12.20;;
65202;SDS011;51788;45.124;38.966;2024-03-29T04:50:37;49.47;;;11.57;;
65202;SDS011;51788;45.124;38.966;2024-03-29T04:53:03;54.72;;;12.75;;
65202;SDS011;51788;45.124;38.966;2024-03-29T04:55:29;60.05;;;12.75;;
65202;SDS011;51788;45.124;38.966;2024-03-29T04:57:55;62.78;;;13.20;;
65202;SDS011;51788;45.124;38.966;2024-03-29T05:00:21;58.42;;;13.30;;
65202;SDS011;51788;45.124;38.966;2024-03-29T05:02:47;42.20;;;12.00;;
65202;SDS011;51788;45.124;38.966;2024-03-29T05:05:13;40.70;;;11.48;;
65202;SDS011;51788;45.124;38.966;2024-03-29T05:07:39;55.13;;;12.30;;
65202;SDS011;51788;45.124;38.966;2024-03-29T05:10:05;35.38;;;11.07;;
65202;SDS011;51788;45.124;38.966;2024-03-29T05:12:33;44.17;;;10.93;;
65202;SDS011;51788;45.124;38.966;2024-03-29T05:14:59;42.88;;;11.70;;
65202;SDS011;51788;45.124;38.966;2024-03-29T05:17:25;47.10;;;11.10;;
65202;SDS011;51788;45.124;38.966;2024-03-29T05:19:54;49.10;;;11.70;;
65202;SDS011;51788;45.124;38.966;2024-03-29T05:22:20;69.28;;;12.70;;
65202;SDS011;51788;45.124;38.966;2024-03-29T05:24:46;59.30;;;12.73;;
65202;SDS011;51788;45.124;38.966;2024-03-29T05:27:12;52.75;;;11.10;;
65202;SDS011;51788;45.124;38.966;2024-03-29T05:29:39;55.45;;;11.40;;
65202;SDS011;51788;45.124;38.966;2024-03-29T05:32:06;36.83;;;10.07;;
65202;SDS011;51788;45.124;38.966;2024-03-29T05:34:32;45.38;;;11.10;;
65202;SDS011;51788;45.124;38.966;2024-03-29T05:36:58;57.53;;;10.07;;
65202;SDS011;51788;45.124;38.966;2024-03-29T05:39:24;49.80;;;10.23;;
65202;SDS011;51788;45.124;38.966;2024-03-29T05:41:50;40.97;;;9.35;;
65202;SDS011;51788;45.124;38.966;2024-03-29T05:44:16;59.05;;;11.25;;
65202;SDS011;51788;45.124;38.966;2024-03-29T05:46:42;39.45;;;10.25;;
65202;SDS011;51788;45.124;38.966;2024-03-29T05:49:08;49.03;;;10.18;;
65202;SDS011;51788;45.124;38.966;2024-03-29T05:51:35;74.32;;;10.27;;
65202;SDS011;51788;45.124;38.966;2024-03-29T05:54:01;51.70;;;8.27;;
65202;SDS011;51788;45.124;38.966;2024-03-29T05:56:29;35.97;;;8.50;;
65202;SDS011;51788;45.124;38.966;2024-03-29T05:58:55;40.83;;;8.15;;
65202;SDS011;51788;45.124;38.966;2024-03-29T06:01:21;37.28;;;8.45;;
65202;SDS011;51788;45.124;38.966;2024-03-29T06:03:50;32.72;;;8.98;;
65202;SDS011;51788;45.124;38.966;2024-03-29T06:06:20;39.63;;;8.13;;
65202;SDS011;51788;45.124;38.966;2024-03-29T06:08:49;33.30;;;8.50;;
65202;SDS011;51788;45.124;38.966;2024-03-29T06:11:16;37.22;;;9.77;;
65202;SDS011;51788;45.124;38.966;2024-03-29T06:13:42;50.97;;;10.25;;
65202;SDS011;51788;45.124;38.966;2024-03-29T06:16:27;32.95;;;8.02;;
65202;SDS011;51788;45.124;38.966;2024-03-29T06:19:12;24.33;;;8.85;;
65202;SDS011;51788;45.124;38.966;2024-03-29T06:21:38;38.33;;;8.25;;
65202;SDS011;51788;45.124;38.966;2024-03-29T06:24:08;38.55;;;8.25;;
65202;SDS011;51788;45.124;38.966;2024-03-29T06:26:41;48.00;;;8.15;;
65202;SDS011;51788;45.124;38.966;2024-03-29T06:29:07;20.75;;;7.97;;
65202;SDS011;51788;45.124;38.966;2024-03-29T06:31:36;39.58;;;8.50;;
65202;SDS011;51788;45.124;38.966;2024-03-29T06:34:02;47.33;;;9.20;;
65202;SDS011;51788;45.124;38.966;2024-03-29T06:36:28;47.95;;;8.60;;
65202;SDS011;51788;45.124;38.966;2024-03-29T06:38:56;30.27;;;8.70;;
65202;SDS011;51788;45.124;38.966;2024-03-29T06:41:22;45.65;;;9.77;;
65202;SDS011;51788;45.124;38.966;2024-03-29T06:43:48;41.40;;;9.02;;
65202;SDS011;51788;45.124;38.966;2024-03-29T06:46:14;49.70;;;9.70;;
65202;SDS011;51788;45.124;38.966;2024-03-29T06:48:40;48.88;;;9.40;;
65202;SDS011;51788;45.124;38.966;2024-03-29T06:51:06;65.43;;;10.43;;
65202;SDS011;51788;45.124;38.966;2024-03-29T06:53:32;33.83;;;10.02;;
65202;SDS011;51788;45.124;38.966;2024-03-29T06:56:00;52.40;;;10.68;;
65202;SDS011;51788;45.124;38.966;2024-03-29T06:58:30;43.70;;;13.25;;
65202;SDS011;51788;45.124;38.966;2024-03-29T07:00:56;30.15;;;11.02;;
65202;SDS011;51788;45.124;38.966;2024-03-29T07:03:24;54.17;;;11.32;;
65202;SDS011;51788;45.124;38.966;2024-03-29T07:05:50;40.45;;;10.68;;
65202;SDS011;51788;45.124;38.966;2024-03-29T07:08:16;55.53;;;9.98;;
65202;SDS011;51788;45.124;38.966;2024-03-29T07:10:42;38.10;;;10.63;;
65202;SDS011;51788;45.124;38.966;2024-03-29T07:13:08;57.22;;;9.60;;
65202;SDS011;51788;45.124;38.966;2024-03-29T07:15:35;32.60;;;9.63;;
65202;SDS011;51788;45.124;38.966;2024-03-29T07:18:01;33.53;;;8.18;;
65202;SDS011;51788;45.124;38.966;2024-03-29T07:20:30;34.60;;;8.18;;
65202;SDS011;51788;45.124;38.966;2024-03-29T07:22:56;28.77;;;7.90;;
65202;SDS011;51788;45.124;38.966;2024-03-29T07:25:23;18.13;;;7.30;;
65202;SDS011;51788;45.124;38.966;2024-03-29T07:27:49;33.00;;;7.68;;
65202;SDS011;51788;45.124;38.966;2024-03-29T07:30:18;27.13;;;9.23;;
65202;SDS011;51788;45.124;38.966;2024-03-29T07:32:44;34.35;;;6.90;;
65202;SDS011;51788;45.124;38.966;2024-03-29T07:35:10;25.05;;;7.05;;
65202;SDS011;51788;45.124;38.966;2024-03-29T07:37:37;23.02;;;7.43;;
65202;SDS011;51788;45.124;38.966;2024-03-29T07:40:03;45.22;;;8.43;;
65202;SDS011;51788;45.124;38.966;2024-03-29T07:42:29;27.25;;;7.60;;
65202;SDS011;51788;45.124;38.966;2024-03-29T07:44:55;25.23;;;7.55;;
65202;SDS011;51788;45.124;38.966;2024-03-29T07:47:21;53.55;;;8.18;;
65202;SDS011;51788;45.124;38.966;2024-03-29T07:49:51;34.03;;;7.93;;
65202;SDS011;51788;45.124;38.966;2024-03-29T07:52:16;31.52;;;8.20;;
65202;SDS011;51788;45.124;38.966;2024-03-29T07:54:44;35.35;;;8.13;;
65202;SDS011;51788;45.124;38.966;2024-03-29T07:57:10;26.90;;;7.25;;
65202;SDS011;51788;45.124;38.966;2024-03-29T07:59:40;16.35;;;6.28;;
65202;SDS011;51788;45.124;38.966;2024-03-29T08:02:06;33.60;;;6.90;;
65202;SDS011;51788;45.124;38.966;2024-03-29T08:04:32;33.17;;;6.70;;
65202;SDS011;51788;45.124;38.966;2024-03-29T08:06:58;21.23;;;7.10;;
65202;SDS011;51788;45.124;38.966;2024-03-29T08:09:24;25.63;;;7.05;;
65202;SDS011;51788;45.124;38.966;2024-03-29T08:11:50;16.50;;;6.88;;
65202;SDS011;51788;45.124;38.966;2024-03-29T08:14:16;37.08;;;7.85;;
65202;SDS011;51788;45.124;38.966;2024-03-29T08:16:42;17.98;;;6.65;;
65202;SDS011;51788;45.124;38.966;2024-03-29T08:19:08;25.50;;;7.00;;
65202;SDS011;51788;45.124;38.966;2024-03-29T08:21:34;17.98;;;5.78;;
65202;SDS011;51788;45.124;38.966;2024-03-29T08:24:01;23.52;;;5.85;;
65202;SDS011;51788;45.124;38.966;2024-03-29T08:26:28;30.52;;;5.30;;
65202;SDS011;51788;45.124;38.966;2024-03-29T08:28:54;41.17;;;5.53;;
65202;SDS011;51788;45.124;38.966;2024-03-29T08:31:20;19.20;;;4.63;;
65202;SDS011;51788;45.124;38.966;2024-03-29T08:33:46;12.93;;;3.75;;
65202;SDS011;51788;45.124;38.966;2024-03-29T08:36:13;51.72;;;5.35;;
65202;SDS011;51788;45.124;38.966;2024-03-29T08:38:39;17.85;;;4.18;;
65202;SDS011;51788;45.124;38.966;2024-03-29T08:41:08;13.02;;;4.25;;
65202;SDS011;51788;45.124;38.966;2024-03-29T08:43:34;6.53;;;4.40;;
65202;SDS011;51788;45.124;38.966;2024-03-29T08:46:00;28.25;;;4.88;;
65202;SDS011;51788;45.124;38.966;2024-03-29T08:48:27;20.75;;;5.18;;
65202;SDS011;51788;45.124;38.966;2024-03-29T08:50:53;21.17;;;5.72;;
65202;SDS011;51788;45.124;38.966;2024-03-29T08:53:19;12.23;;;4.47;;
65202;SDS011;51788;45.124;38.966;2024-03-29T08:55:47;40.88;;;5.32;;
65202;SDS011;51788;45.124;38.966;2024-03-29T08:58:13;64.18;;;6.30;;
65202;SDS011;51788;45.124;38.966;2024-03-29T09:00:39;18.92;;;4.65;;
65202;SDS011;51788;45.124;38.966;2024-03-29T09:03:05;31.58;;;6.03;;
65202;SDS011;51788;45.124;38.966;2024-03-29T09:05:32;20.90;;;4.68;;
65202;SDS011;51788;45.124;38.966;2024-03-29T09:07:58;15.15;;;5.13;;
65202;SDS011;51788;45.124;38.966;2024-03-29T09:10:25;27.67;;;4.78;;
65202;SDS011;51788;45.124;38.966;2024-03-29T09:12:52;30.10;;;4.75;;
65202;SDS011;51788;45.124;38.966;2024-03-29T09:15:18;22.13;;;5.47;;
65202;SDS011;51788;45.124;38.966;2024-03-29T09:17:44;19.75;;;4.60;;
65202;SDS011;51788;45.124;38.966;2024-03-29T09:20:13;21.98;;;3.78;;
65202;SDS011;51788;45.124;38.966;2024-03-29T09:22:39;37.75;;;5.53;;
65202;SDS011;51788;45.124;38.966;2024-03-29T09:25:06;11.63;;;4.00;;
65202;SDS011;51788;45.124;38.966;2024-03-29T09:27:36;24.52;;;3.97;;
65202;SDS011;51788;45.124;38.966;2024-03-29T09:30:02;10.38;;;2.85;;
65202;SDS011;51788;45.124;38.966;2024-03-29T09:32:32;11.43;;;2.75;;
65202;SDS011;51788;45.124;38.966;2024-03-29T09:34:58;30.25;;;4.75;;
65202;SDS011;51788;45.124;38.966;2024-03-29T09:37:25;24.65;;;3.83;;
65202;SDS011;51788;45.124;38.966;2024-03-29T09:39:51;43.45;;;7.18;;
65202;SDS011;51788;45.124;38.966;2024-03-29T09:42:17;18.58;;;3.35;;
65202;SDS011;51788;45.124;38.966;2024-03-29T09:44:50;23.10;;;4.20;;
65202;SDS011;51788;45.124;38.966;2024-03-29T09:47:17;14.02;;;3.25;;
65202;SDS011;51788;45.124;38.966;2024-03-29T09:49:46;23.30;;;4.20;;
65202;SDS011;51788;45.124;38.966;2024-03-29T09:52:15;26.88;;;3.97;;
65202;SDS011;51788;45.124;38.966;2024-03-29T09:54:42;16.58;;;3.45;;
65202;SDS011;51788;45.124;38.966;2024-03-29T09:57:08;24.75;;;4.25;;
65202;SDS011;51788;45.124;38.966;2024-03-29T09:59:37;15.23;;;3.47;;
65202;SDS011;51788;45.124;38.966;2024-03-29T10:02:04;30.05;;;4.43;;
65202;SDS011;51788;45.124;38.966;2024-03-29T10:04:42;12.32;;;3.50;;
65202;SDS011;51788;45.124;38.966;2024-03-29T10:07:11;19.35;;;4.15;;
65202;SDS011;51788;45.124;38.966;2024-03-29T10:09:39;32.40;;;4.60;;
65202;SDS011;51788;45.124;38.966;2024-03-29T10:12:06;18.52;;;4.78;;
65202;SDS011;51788;45.124;38.966;2024-03-29T10:14:42;18.63;;;4.72;;
65202;SDS011;51788;45.124;38.966;2024-03-29T10:19:42;10.75;;;3.85;;
65202;SDS011;51788;45.124;38.966;2024-03-29T10:22:08;15.80;;;5.03;;
65202;SDS011;51788;45.124;38.966;2024-03-29T10:24:34;18.73;;;4.28;;
65202;SDS011;51788;45.124;38.966;2024-03-29T10:27:01;14.05;;;4.13;;
65202;SDS011;51788;45.124;38.966;2024-03-29T10:29:28;16.10;;;4.63;;
65202;SDS011;51788;45.124;38.966;2024-03-29T10:31:57;17.25;;;4.28;;
65202;SDS011;51788;45.124;38.966;2024-03-29T10:34:27;13.95;;;3.47;;
65202;SDS011;51788;45.124;38.966;2024-03-29T10:37:00;13.70;;;3.85;;
65202;SDS011;51788;45.124;38.966;2024-03-29T10:39:28;18.75;;;4.93;;
65202;SDS011;51788;45.124;38.966;2024-03-29T10:41:56;19.90;;;4.22;;
65202;SDS011;51788;45.124;38.966;2024-03-29T10:44:22;24.23;;;4.65;;
65202;SDS011;51788;45.124;38.966;2024-03-29T10:46:49;20.75;;;5.10;;
65202;SDS011;51788;45.124;38.966;2024-03-29T10:49:16;16.13;;;4.65;;
65202;SDS011;51788;45.124;38.966;2024-03-29T10:51:43;15.00;;;4.72;;
65202;SDS011;51788;45.124;38.966;2024-03-29T10:54:10;21.25;;;5.82;;
65202;SDS011;51788;45.124;38.966;2024-03-29T10:56:37;14.55;;;4.13;;
65202;SDS011;51788;45.124;38.966;2024-03-29T10:59:21;25.83;;;5.80;;
65202;SDS011;51788;45.124;38.966;2024-03-29T11:01:51;21.30;;;4.40;;
65202;SDS011;51788;45.124;38.966;2024-03-29T11:04:25;19.20;;;4.20;;
65202;SDS011;51788;45.124;38.966;2024-03-29T11:06:57;33.08;;;5.25;;
65202;SDS011;51788;45.124;38.966;2024-03-29T11:09:27;26.30;;;5.05;;
65202;SDS011;51788;45.124;38.966;2024-03-29T11:11:56;21.98;;;4.95;;
65202;SDS011;51788;45.124;38.966;2024-03-29T11:14:40;23.88;;;5.03;;
65202;SDS011;51788;45.124;38.966;2024-03-29T11:17:11;17.60;;;4.53;;
65202;SDS011;51788;45.124;38.966;2024-03-29T11:19:39;25.23;;;5.70;;
65202;SDS011;51788;45.124;38.966;2024-03-29T11:22:06;20.52;;;5.75;;
65202;SDS011;51788;45.124;38.966;2024-03-29T11:24:35;20.52;;;5.10;;
65202;SDS011;51788;45.124;38.966;2024-03-29T11:29:36;20.75;;;5.82;;
65202;SDS011;51788;45.124;38.966;2024-03-29T11:32:08;23.33;;;6.05;;
65202;SDS011;51788;45.124;38.966;2024-03-29T11:34:34;19.02;;;5.30;;
65202;SDS011;51788;45.124;38.966;2024-03-29T11:37:07;14.48;;;4.25;;
65202;SDS011;51788;45.124;38.966;2024-03-29T11:39:34;20.15;;;5.68;;
65202;SDS011;51788;45.124;38.966;2024-03-29T11:42:01;23.02;;;5.93;;
65202;SDS011;51788;45.124;38.966;2024-03-29T11:44:28;16.77;;;5.22;;
65202;SDS011;51788;45.124;38.966;2024-03-29T11:46:56;36.45;;;5.93;;
65202;SDS011;51788;45.124;38.966;2024-03-29T11:49:23;28.58;;;6.82;;
65202;SDS011;51788;45.124;38.966;2024-03-29T11:51:50;27.58;;;6.05;;
65202;SDS011;51788;45.124;38.966;2024-03-29T11:54:16;26.77;;;6.30;;
65202;SDS011;51788;45.124;38.966;2024-03-29T11:56:42;16.67;;;6.32;;
65202;SDS011;51788;45.124;38.966;2024-03-29T11:59:08;21.33;;;5.82;;
65202;SDS011;51788;45.124;38.966;2024-03-29T12:01:35;24.00;;;6.85;;
65202;SDS011;51788;45.124;38.966;2024-03-29T12:04:04;26.40;;;5.78;;
65202;SDS011;51788;45.124;38.966;2024-03-29T12:06:30;20.27;;;4.88;;
65202;SDS011;51788;45.124;38.966;2024-03-29T12:08:56;33.08;;;6.47;;
65202;SDS011;51788;45.124;38.966;2024-03-29T12:11:22;31.15;;;6.05;;
65202;SDS011;51788;45.124;38.966;2024-03-29T12:13:49;28.25;;;6.63;;
65202;SDS011;51788;45.124;38.966;2024-03-29T12:16:15;23.33;;;7.03;;
65202;SDS011;51788;45.124;38.966;2024-03-29T12:18:41;34.80;;;7.90;;
65202;SDS011;51788;45.124;38.966;2024-03-29T12:21:12;32.13;;;8.23;;
65202;SDS011;51788;45.124;38.966;2024-03-29T12:23:46;22.90;;;7.15;;
65202;SDS011;51788;45.124;38.966;2024-03-29T12:26:13;30.38;;;6.60;;
65202;SDS011;51788;45.124;38.966;2024-03-29T12:28:39;19.58;;;5.50;;
65202;SDS011;51788;45.124;38.966;2024-03-29T12:31:05;22.50;;;5.93;;
65202;SDS011;51788;45.124;38.966;2024-03-29T12:33:34;25.30;;;6.93;;
65202;SDS011;51788;45.124;38.966;2024-03-29T12:36:01;22.52;;;6.00;;
65202;SDS011;51788;45.124;38.966;2024-03-29T12:38:28;16.17;;;4.63;;
65202;SDS011;51788;45.124;38.966;2024-03-29T12:40:56;15.98;;;4.75;;
65202;SDS011;51788;45.124;38.966;2024-03-29T12:43:22;17.45;;;4.88;;
65202;SDS011;51788;45.124;38.966;2024-03-29T12:45:49;13.88;;;4.10;;
65202;SDS011;51788;45.124;38.966;2024-03-29T12:48:17;26.13;;;5.18;;
65202;SDS011;51788;45.124;38.966;2024-03-29T12:50:45;14.15;;;4.18;;
65202;SDS011;51788;45.124;38.966;2024-03-29T12:53:12;15.20;;;4.25;;
65202;SDS011;51788;45.124;38.966;2024-03-29T12:55:46;19.58;;;4.35;;
65202;SDS011;51788;45.124;38.966;2024-03-29T12:58:13;18.50;;;4.13;;
65202;SDS011;51788;45.124;38.966;2024-03-29T13:00:46;14.77;;;4.45;;
65202;SDS011;51788;45.124;38.966;2024-03-29T13:03:12;10.43;;;3.88;;
65202;SDS011;51788;45.124;38.966;2024-03-29T13:05:39;6.55;;;2.70;;
65202;SDS011;51788;45.124;38.966;2024-03-29T13:08:12;13.98;;;4.75;;
65202;SDS011;51788;45.124;38.966;2024-03-29T13:10:41;15.77;;;4.28;;
65202;SDS011;51788;45.124;38.966;2024-03-29T13:13:08;13.18;;;4.03;;
65202;SDS011;51788;45.124;38.966;2024-03-29T13:15:34;17.65;;;4.07;;
65202;SDS011;51788;45.124;38.966;2024-03-29T13:18:01;10.55;;;3.47;;
65202;SDS011;51788;45.124;38.966;2024-03-29T13:20:29;16.35;;;3.67;;
65202;SDS011;51788;45.124;38.966;2024-03-29T13:22:56;20.80;;;4.53;;
65202;SDS011;51788;45.124;38.966;2024-03-29T13:25:23;12.48;;;3.75;;
65202;SDS011;51788;45.124;38.966;2024-03-29T13:27:50;14.00;;;4.47;;
65202;SDS011;51788;45.124;38.966;2024-03-29T13:30:21;15.85;;;4.70;;
65202;SDS011;51788;45.124;38.966;2024-03-29T13:32:48;12.70;;;4.22;;
65202;SDS011;51788;45.124;38.966;2024-03-29T13:35:14;14.43;;;3.53;;
65202;SDS011;51788;45.124;38.966;2024-03-29T13:37:42;12.50;;;3.80;;
65202;SDS011;51788;45.124;38.966;2024-03-29T13:40:11;14.32;;;4.07;;
65202;SDS011;51788;45.124;38.966;2024-03-29T13:42:37;6.78;;;3.78;;
65202;SDS011;51788;45.124;38.966;2024-03-29T13:45:04;10.63;;;3.75;;
65202;SDS011;51788;45.124;38.966;2024-03-29T13:47:35;9.27;;;3.90;;
65202;SDS011;51788;45.124;38.966;2024-03-29T13:50:05;14.43;;;3.20;;
65202;SDS011;51788;45.124;38.966;2024-03-29T13:52:32;17.65;;;4.20;;
65202;SDS011;51788;45.124;38.966;2024-03-29T13:54:59;9.40;;;3.20;;
65202;SDS011;51788;45.124;38.966;2024-03-29T13:57:25;11.57;;;3.53;;
65202;SDS011;51788;45.124;38.966;2024-03-29T13:59:52;15.38;;;3.83;;
65202;SDS011;51788;45.124;38.966;2024-03-29T14:02:18;9.10;;;4.50;;
65202;SDS011;51788;45.124;38.966;2024-03-29T14:04:45;9.85;;;2.83;;
65202;SDS011;51788;45.124;38.966;2024-03-29T14:07:13;11.93;;;4.47;;
65202;SDS011;51788;45.124;38.966;2024-03-29T14:09:40;12.20;;;3.53;;
65202;SDS011;51788;45.124;38.966;2024-03-29T14:12:07;10.90;;;3.30;;
65202;SDS011;51788;45.124;38.966;2024-03-29T14:14:34;14.30;;;5.63;;
65202;SDS011;51788;45.124;38.966;2024-03-29T14:17:00;14.82;;;3.70;;
65202;SDS011;51788;45.124;38.966;2024-03-29T14:19:32;6.57;;;2.90;;
65202;SDS011;51788;45.124;38.966;2024-03-29T14:21:59;13.85;;;3.75;;
65202;SDS011;51788;45.124;38.966;2024-03-29T14:24:25;7.80;;;4.38;;
65202;SDS011;51788;45.124;38.966;2024-03-29T14:26:52;10.02;;;3.22;;